Time;durP1;ratioP1;P1;durP2;ratioP2;P2;SDS_P1;SDS_P2;PMS_P1;PMS_P2;Temp;Humidity;BMP_temperature;BMP_pressure;BME280_temperature;BME280_humidity;BME280_pressure;Samples;Min_cycle;Max_cycle;Signal;HPM_P1;HPM_P2
2021/03/30 00:01:27;;;;;;;7.90;5.70;;;6.60;99.90;;;7.71;66.40;99389.72;5187410;28;20289;-55
2021/03/30 00:03:59;;;;;;;7.40;5.50;;;6.60;99.90;;;7.71;66.66;99391.38;5186615;28;20198;-53
2021/03/30 00:06:32;;;;;;;6.00;5.40;;;6.60;99.90;;;7.69;66.45;99391.22;5167302;28;20282;-54
2021/03/30 00:09:06;;;;;;;5.83;5.33;;;6.50;99.90;;;7.58;66.70;99392.81;5180978;28;20285;-55
2021/03/30 00:11:39;;;;;;;6.10;5.60;;;6.50;99.90;;;7.51;66.56;99385.34;5193647;28;20581;-53
2021/03/30 00:14:11;;;;;;;6.83;5.70;;;6.50;99.90;;;7.53;66.60;99391.47;5185074;28;20225;-52
2021/03/30 00:16:43;;;;;;;7.13;6.43;;;6.50;99.90;;;7.49;67.13;99394.47;5183940;28;20289;-55
2021/03/30 00:19:16;;;;;;;6.50;5.83;;;6.50;99.90;;;7.44;66.77;99393.16;5186511;28;20231;-52
2021/03/30 00:21:48;;;;;;;6.97;5.60;;;6.40;99.90;;;7.39;66.84;99389.28;5174535;28;20201;-54
2021/03/30 00:24:20;;;;;;;6.20;5.60;;;6.40;99.90;;;7.32;66.89;99384.34;5198237;28;20248;-55
2021/03/30 00:26:53;;;;;;;6.70;6.03;;;6.40;99.90;;;7.27;67.01;99383.94;5169733;28;20206;-52
2021/03/30 00:29:25;;;;;;;7.73;7.03;;;6.40;99.90;;;7.30;67.36;99385.88;5186557;28;20225;-54
2021/03/30 00:31:57;;;;;;;7.77;6.50;;;6.40;99.90;;;7.27;67.95;99383.00;5186773;28;20282;-52
2021/03/30 00:34:29;;;;;;;6.90;6.30;;;6.40;99.90;;;7.20;68.24;99381.56;5185938;28;20255;-54
2021/03/30 00:37:02;;;;;;;7.93;6.90;;;6.30;99.90;;;7.08;68.29;99381.28;5167426;28;20237;-55
2021/03/30 00:39:34;;;;;;;6.83;6.23;;;6.30;99.90;;;7.11;68.88;99378.16;5166087;28;20322;-55
2021/03/30 00:42:08;;;;;;;8.10;6.87;;;6.30;99.90;;;7.17;68.98;99382.16;5175619;28;20341;-56
2021/03/30 00:44:40;;;;;;;7.37;6.30;;;6.30;99.90;;;7.23;68.92;99376.75;5179548;28;20199;-53
2021/03/30 00:47:15;;;;;;;6.87;6.17;;;6.40;99.90;;;7.30;68.58;99374.06;5185420;28;20569;-55
2021/03/30 00:49:49;;;;;;;8.00;6.53;;;6.40;99.90;;;7.27;68.11;99378.84;5168569;28;20744;-56
2021/03/30 00:52:23;;;;;;;6.83;6.13;;;6.30;99.90;;;7.20;68.17;99384.97;5182940;28;20289;-57
2021/03/30 00:54:55;;;;;;;6.33;5.73;;;6.20;99.90;;;7.12;67.78;99373.19;5166750;28;20223;-56
2021/03/30 00:57:27;;;;;;;7.30;6.60;;;6.20;99.90;;;7.06;67.94;99379.34;5179930;28;20198;-56
2021/03/30 01:00:00;;;;;;;9.63;7.23;;;6.10;99.90;;;6.97;68.98;99379.38;5185444;28;20324;-53
2021/03/30 01:02:32;;;;;;;8.47;6.83;;;6.10;99.90;;;6.99;69.03;99376.22;5186547;28;20294;-56
2021/03/30 01:05:06;;;;;;;7.97;6.90;;;6.10;99.90;;;7.09;68.61;99377.09;5184988;28;20588;-52
2021/03/30 01:07:56;;;;;;;8.67;6.40;;;6.20;99.90;;;7.02;68.62;99378.16;5166581;28;20688;-56
2021/03/30 01:10:43;;;;;;;9.10;6.80;;;6.20;99.90;;;6.96;69.03;99377.59;5182860;28;20713;-55
2021/03/30 01:13:30;;;;;;;7.83;6.67;;;6.20;99.90;;;7.02;69.03;99375.63;5179333;28;20239;-56
2021/03/30 01:16:08;;;;;;;7.27;6.67;;;6.20;99.90;;;7.08;68.98;99375.31;5181398;28;20666;-55
2021/03/30 01:18:46;;;;;;;10.37;6.83;;;6.30;99.90;;;7.06;68.96;99375.16;5184529;28;20294;-57
2021/03/30 01:21:58;;;;;;;6.97;6.40;;;6.20;99.90;;;7.10;68.90;99384.88;5185170;28;20234;-56
2021/03/30 01:24:36;;;;;;;6.67;6.07;;;6.20;99.90;;;6.99;68.96;99375.34;5181069;28;20291;-54
2021/03/30 01:27:20;;;;;;;7.40;6.60;;;6.10;99.90;;;6.93;68.32;99375.66;5195882;28;20232;-54
2021/03/30 01:29:55;;;;;;;6.47;5.83;;;6.10;99.90;;;6.97;68.42;99372.63;5165171;28;20322;-55
2021/03/30 01:32:34;;;;;;;7.47;6.67;;;6.10;99.90;;;6.89;68.38;99368.47;5176104;28;20562;-56
2021/03/30 01:35:10;;;;;;;7.33;6.63;;;6.10;99.90;;;6.76;68.56;99370.59;5185098;28;20236;-56
2021/03/30 01:37:46;;;;;;;7.40;6.03;;;6.00;99.90;;;6.77;69.35;99374.91;5180927;28;20245;-55
2021/03/30 01:40:23;;;;;;;6.73;6.13;;;5.90;99.90;;;6.67;68.78;99375.69;5203559;28;20213;-57
2021/03/30 01:42:56;;;;;;;6.70;6.10;;;5.80;99.90;;;6.67;69.04;99370.59;5179190;28;20746;-55
2021/03/30 01:45:32;;;;;;;8.43;7.07;;;5.90;99.90;;;6.58;69.13;99374.81;5184572;28;20208;-52
2021/03/30 01:48:05;;;;;;;8.53;7.63;;;5.80;99.90;;;6.43;70.37;99368.22;5182875;28;20293;-56
2021/03/30 01:50:38;;;;;;;8.80;7.23;;;5.70;99.90;;;6.45;70.26;99365.09;5182427;28;20702;-55
2021/03/30 01:53:12;;;;;;;8.07;7.27;;;5.70;99.90;;;6.49;70.15;99361.19;5184070;28;20202;-56
2021/03/30 01:55:46;;;;;;;8.40;7.60;;;5.70;99.90;;;6.51;70.98;99362.25;5201004;28;20393;-55
2021/03/30 01:58:20;;;;;;;7.87;7.17;;;5.70;99.90;;;6.47;71.11;99371.22;5184501;28;20284;-54
2021/03/30 02:00:54;;;;;;;7.77;6.97;;;5.60;99.90;;;6.47;70.33;99365.25;5181791;28;20222;-57
2021/03/30 02:03:27;;;;;;;7.97;7.17;;;5.60;99.90;;;6.49;70.33;99369.69;5187447;28;20207;-55
2021/03/30 02:06:01;;;;;;;7.80;7.00;;;5.60;99.90;;;6.48;71.32;99369.56;5180895;28;20287;-55
2021/03/30 02:08:35;;;;;;;9.20;7.00;;;5.60;99.90;;;6.43;71.22;99369.09;5167884;28;20208;-56
2021/03/30 02:11:08;;;;;;;7.23;6.43;;;5.50;99.90;;;6.41;70.91;99364.63;5181635;28;20695;-56
2021/03/30 02:13:42;;;;;;;7.03;6.33;;;5.50;99.90;;;6.36;71.01;99356.56;5180849;28;20285;-56
2021/03/30 02:16:22;;;;;;;8.37;6.87;;;5.40;99.90;;;6.28;70.18;99365.97;5179957;28;20218;-55
2021/03/30 02:19:07;;;;;;;7.77;7.00;;;5.30;99.90;;;6.17;70.90;99364.03;5179623;28;20293;-56
2021/03/30 02:21:45;;;;;;;6.93;6.27;;;5.10;99.90;;;6.18;71.13;99364.91;5164839;28;20213;-56
2021/03/30 02:24:19;;;;;;;6.20;5.67;;;5.10;99.90;;;6.14;69.63;99361.19;5167939;28;20604;-56
2021/03/30 02:26:53;;;;;;;5.87;5.40;;;5.00;99.90;;;6.14;69.70;99361.19;5190179;28;20293;-56
2021/03/30 02:29:32;;;;;;;7.93;5.60;;;4.90;99.90;;;6.04;69.42;99361.94;5177059;28;20709;-56
2021/03/30 02:32:12;;;;;;;5.93;5.33;;;4.90;99.90;;;5.86;69.69;99367.66;5174059;28;20285;-56
2021/03/30 02:34:48;;;;;;;5.97;5.47;;;4.80;99.90;;;5.80;70.39;99372.13;5183940;28;20654;-54
2021/03/30 02:37:21;;;;;;;5.87;5.30;;;4.80;99.90;;;5.82;70.75;99366.47;5196525;28;20195;-54
2021/03/30 02:39:54;;;;;;;6.27;5.77;;;4.80;99.90;;;5.80;70.78;99367.06;5184347;28;20694;-53
2021/03/30 02:42:26;;;;;;;6.23;5.73;;;4.80;99.90;;;5.89;70.91;99370.50;5171588;28;20198;-55
2021/03/30 02:45:00;;;;;;;5.73;5.23;;;4.80;99.90;;;5.78;71.67;99368.53;5184458;28;20201;-55
2021/03/30 02:47:33;;;;;;;5.97;5.47;;;4.80;99.90;;;5.79;70.83;99368.72;5165057;28;20554;-52
2021/03/30 02:50:08;;;;;;;5.70;5.07;;;4.80;99.90;;;5.80;70.68;99365.41;5197605;28;20316;-55
2021/03/30 02:52:40;;;;;;;6.07;5.67;;;4.70;99.90;;;5.70;70.68;99366.91;5193108;28;20643;-56
2021/03/30 02:55:13;;;;;;;6.47;5.60;;;4.60;99.90;;;5.58;70.89;99367.47;5184521;28;20233;-56
2021/03/30 02:57:46;;;;;;;7.40;5.97;;;4.60;99.90;;;5.55;71.84;99366.25;5183269;28;20245;-54
2021/03/30 03:00:20;;;;;;;5.57;5.07;;;4.50;99.90;;;5.57;71.23;99370.72;5171492;28;20306;-55
2021/03/30 03:02:55;;;;;;;6.07;5.20;;;4.50;99.90;;;5.49;71.12;99365.63;5176760;28;20196;-54
2021/03/30 03:05:27;;;;;;;6.03;5.47;;;4.50;99.90;;;5.36;71.38;99368.56;5182675;28;20228;-55
2021/03/30 03:08:00;;;;;;;5.53;5.13;;;4.40;99.90;;;5.33;71.80;99369.16;5191899;28;20279;-54
2021/03/30 03:10:32;;;;;;;6.40;5.73;;;4.40;99.90;;;5.36;72.11;99373.66;5180849;28;20311;-55
2021/03/30 03:13:07;;;;;;;6.67;6.03;;;4.50;99.90;;;5.48;72.41;99368.91;5188505;28;20226;-56
2021/03/30 03:15:41;;;;;;;6.70;6.13;;;4.50;99.90;;;5.49;72.25;99375.78;5180154;28;20309;-55
2021/03/30 03:18:15;;;;;;;6.43;5.83;;;4.50;99.90;;;5.46;72.11;99380.53;5167562;28;20635;-55
2021/03/30 03:20:49;;;;;;;6.47;5.53;;;4.50;99.90;;;5.36;71.86;99374.53;5182047;28;20259;-54
2021/03/30 03:23:21;;;;;;;5.83;5.33;;;4.40;99.90;;;5.37;71.59;99383.94;5187132;28;20206;-56
2021/03/30 03:25:54;;;;;;;6.40;5.90;;;4.50;99.90;;;5.39;72.00;99384.97;5188059;28;20197;-53
2021/03/30 03:28:26;;;;;;;6.57;5.97;;;4.50;99.90;;;5.41;71.70;99387.69;5204507;28;20200;-56
2021/03/30 03:30:59;;;;;;;6.23;5.50;;;4.40;99.90;;;5.36;71.59;99384.69;5173247;28;20223;-53
2021/03/30 03:33:32;;;;;;;6.40;5.80;;;4.40;99.90;;;5.31;71.98;99385.84;5203126;28;20254;-53
2021/03/30 03:36:08;;;;;;;6.27;5.70;;;4.30;99.90;;;5.26;71.81;99381.94;5186640;28;20595;-55
2021/03/30 03:38:43;;;;;;;6.83;5.87;;;4.20;99.90;;;5.22;71.61;99381.47;5186955;28;20260;-56
2021/03/30 03:41:16;;;;;;;5.87;5.37;;;4.20;99.90;;;5.17;71.58;99375.94;5192849;28;20220;-56
2021/03/30 03:43:49;;;;;;;6.20;4.93;;;4.20;99.90;;;5.15;72.01;99383.41;5203523;28;20345;-55
2021/03/30 03:46:22;;;;;;;6.27;5.63;;;4.20;99.90;;;5.16;72.22;99382.63;5185464;28;20288;-53
2021/03/30 03:48:55;;;;;;;5.90;5.40;;;4.20;99.90;;;5.17;72.41;99381.00;5186294;28;20290;-55
2021/03/30 03:51:32;;;;;;;5.53;4.97;;;4.20;99.90;;;5.18;72.69;99390.41;5185648;28;20205;-52
2021/03/30 03:54:08;;;;;;;5.60;5.20;;;4.20;99.90;;;5.16;71.74;99386.81;5187775;28;20214;-56
2021/03/30 03:56:44;;;;;;;5.70;5.20;;;4.10;99.90;;;5.11;72.02;99386.34;5186410;28;20225;-54
2021/03/30 03:59:19;;;;;;;5.87;5.40;;;4.10;99.90;;;5.05;72.27;99394.94;5186628;28;20691;-54
2021/03/30 04:01:56;;;;;;;6.23;5.67;;;4.00;99.90;;;5.01;72.17;99390.28;5168686;28;20666;-56
2021/03/30 04:04:37;;;;;;;6.20;5.70;;;4.00;99.90;;;5.02;72.61;99389.56;5166533;28;20205;-54
2021/03/30 04:07:16;;;;;;;5.70;5.20;;;4.00;99.90;;;5.01;72.72;99397.88;5171406;28;20291;-52
2021/03/30 04:09:52;;;;;;;6.43;5.83;;;4.00;99.90;;;4.96;72.32;99390.72;5167396;28;20252;-53
2021/03/30 04:12:28;;;;;;;7.80;6.03;;;4.00;99.90;;;4.93;72.65;99395.47;5191095;28;20538;-55
2021/03/30 04:15:01;;;;;;;8.57;6.17;;;4.00;99.90;;;4.85;73.18;99391.25;5190713;28;20230;-57
2021/03/30 04:17:34;;;;;;;7.17;6.47;;;4.00;99.90;;;4.92;73.33;99391.16;5186172;28;20640;-55
2021/03/30 04:20:10;;;;;;;7.07;6.33;;;4.00;99.90;;;4.88;73.33;99390.66;5185643;28;20688;-55
2021/03/30 04:22:45;;;;;;;6.50;5.90;;;4.10;99.90;;;4.95;73.87;99383.88;5186313;28;20247;-54
2021/03/30 04:25:18;;;;;;;6.60;6.00;;;4.10;99.90;;;4.97;73.55;99382.38;5186175;28;20216;-52
2021/03/30 04:27:50;;;;;;;7.23;6.37;;;4.10;99.90;;;4.94;73.58;99384.59;5202313;28;20244;-56
2021/03/30 04:30:24;;;;;;;8.50;6.30;;;4.10;99.90;;;4.96;73.60;99390.72;5189592;28;20598;-54
2021/03/30 04:32:56;;;;;;;9.87;6.63;;;4.10;99.90;;;4.85;73.65;99398.84;5187329;28;20284;-56
2021/03/30 04:35:29;;;;;;;6.53;5.93;;;4.10;99.90;;;4.89;73.83;99392.47;5185599;28;20310;-56
2021/03/30 04:38:01;;;;;;;7.73;6.23;;;4.10;99.90;;;4.90;73.47;99384.13;5185951;28;20656;-53
2021/03/30 04:40:33;;;;;;;7.57;6.63;;;4.10;99.90;;;4.84;73.95;99391.09;5178361;28;20300;-56
2021/03/30 04:43:06;;;;;;;6.47;5.97;;;4.00;99.90;;;4.79;74.21;99389.72;5188825;28;20257;-55
2021/03/30 04:45:38;;;;;;;7.17;6.40;;;4.00;99.90;;;4.68;74.44;99396.19;5175126;28;20200;-56
2021/03/30 04:48:10;;;;;;;7.47;6.73;;;3.90;99.90;;;4.74;74.73;99394.28;5165624;28;20286;-55
2021/03/30 04:50:43;;;;;;;7.67;6.90;;;4.00;99.90;;;4.88;74.64;99394.09;5211808;23;20317;-59
2021/03/30 04:53:16;;;;;;;7.30;6.53;;;4.00;99.90;;;4.94;74.39;99411.56;5205702;28;20290;-59
2021/03/30 04:55:48;;;;;;;6.90;6.37;;;4.00;99.90;;;4.97;73.71;99406.81;5205213;28;20313;-60
2021/03/30 04:58:21;;;;;;;6.20;5.70;;;4.00;99.90;;;4.88;73.57;99399.16;5205420;28;20230;-59
2021/03/30 05:00:54;;;;;;;6.63;5.73;;;3.90;99.90;;;4.83;73.13;99410.44;5205544;28;20214;-59
2021/03/30 05:03:26;;;;;;;6.37;5.77;;;3.80;99.90;;;4.77;73.08;99411.44;5206137;28;20195;-58
2021/03/30 05:05:58;;;;;;;6.40;5.90;;;3.80;99.90;;;4.80;73.20;99417.72;5205628;28;20658;-61
2021/03/30 05:08:30;;;;;;;6.73;5.83;;;3.80;99.90;;;4.81;72.95;99429.69;5204407;28;20195;-60
2021/03/30 05:11:02;;;;;;;6.83;6.17;;;3.80;99.90;;;4.76;73.25;99423.22;5205353;28;20214;-60
2021/03/30 05:13:34;;;;;;;7.10;6.40;;;3.80;99.90;;;4.71;73.09;99417.66;5204161;28;20225;-60
2021/03/30 05:16:07;;;;;;;7.33;6.63;;;3.70;99.90;;;4.73;73.67;99421.25;5204470;28;20318;-57
2021/03/30 05:18:41;;;;;;;6.67;6.07;;;3.80;99.90;;;4.70;73.89;99420.06;5204043;28;20204;-57
2021/03/30 05:21:14;;;;;;;7.80;6.90;;;3.80;99.90;;;4.67;73.85;99420.63;5204319;28;20231;-58
2021/03/30 05:23:46;;;;;;;7.10;6.50;;;3.90;99.90;;;4.52;74.54;99429.13;5204045;28;20231;-56
2021/03/30 05:26:18;;;;;;;8.30;7.13;;;3.70;99.90;;;4.51;74.88;99418.09;5204271;28;20225;-58
2021/03/30 05:28:50;;;;;;;7.60;6.90;;;3.70;99.90;;;4.66;74.53;99422.97;5203757;28;20197;-59
2021/03/30 05:31:22;;;;;;;8.17;7.40;;;3.80;99.90;;;4.70;74.77;99422.59;5203919;28;20768;-59
2021/03/30 05:33:54;;;;;;;8.03;6.90;;;3.90;99.90;;;4.74;74.26;99417.97;5204526;28;20303;-60
2021/03/30 05:36:27;;;;;;;8.00;7.20;;;3.90;99.90;;;4.79;74.51;99420.13;5205757;28;20243;-59
2021/03/30 05:38:59;;;;;;;7.70;6.90;;;3.90;99.90;;;4.80;74.25;99420.25;5204133;28;20202;-61
2021/03/30 05:41:31;;;;;;;8.47;7.40;;;4.00;99.90;;;4.86;74.18;99418.38;5204046;28;20210;-61
2021/03/30 05:44:04;;;;;;;7.93;6.83;;;4.00;99.90;;;4.84;73.95;99429.09;5198765;28;21497;-60
2021/03/30 05:46:38;;;;;;;7.67;6.97;;;4.00;99.90;;;4.89;74.18;99427.91;5202150;28;20223;-60
2021/03/30 05:49:10;;;;;;;7.87;6.63;;;4.10;99.90;;;5.02;74.12;99430.13;5204405;28;20288;-60
2021/03/30 05:51:44;;;;;;;8.43;7.63;;;4.20;99.90;;;5.14;73.77;99424.66;5204423;28;20259;-59
2021/03/30 05:54:19;;;;;;;7.53;6.93;;;4.30;99.90;;;5.29;73.56;99415.19;5204444;28;20199;-59
2021/03/30 05:57:13;;;;;;;7.43;6.60;;;4.40;99.90;;;5.67;72.56;99420.75;5188512;28;20190;-60
2021/03/30 05:59:51;;;;;;;8.73;7.50;;;4.50;99.90;;;6.17;71.15;99419.88;5204625;28;20214;-61
2021/03/30 06:02:31;;;;;;;10.30;8.10;;;4.80;99.90;;;6.38;68.29;99425.28;5204733;28;20228;-60
2021/03/30 06:05:05;;;;;;;7.73;6.87;;;5.00;99.90;;;6.81;67.78;99435.47;5204891;28;20226;-61
2021/03/30 06:07:38;;;;;;;8.13;6.80;;;5.20;99.90;;;7.13;66.02;99433.47;5204459;28;20198;-60
2021/03/30 06:10:14;;;;;;;7.30;6.70;;;5.50;99.90;;;7.27;66.01;99433.88;5204331;28;20230;-59
2021/03/30 06:12:46;;;;;;;7.97;7.17;;;5.70;99.90;;;7.21;66.17;99434.19;5204073;28;20665;-61
2021/03/30 06:15:19;;;;;;;9.93;7.17;;;5.70;99.90;;;7.16;65.59;99428.69;5204262;28;20288;-61
2021/03/30 06:17:52;;;;;;;8.27;6.93;;;5.80;99.90;;;7.22;64.93;99434.34;5201250;28;20252;-60
2021/03/30 06:20:30;;;;;;;8.10;7.30;;;5.90;99.90;;;7.34;65.05;99433.72;5203808;28;20308;-59
2021/03/30 06:23:05;;;;;;;7.93;7.00;;;6.10;99.90;;;7.37;65.69;99432.34;5204094;28;20308;-59
2021/03/30 06:25:46;;;;;;;8.07;7.13;;;6.30;99.90;;;7.74;64.64;99433.28;5203996;28;20204;-59
2021/03/30 06:28:20;;;;;;;7.37;6.33;;;6.50;99.90;;;8.18;63.90;99427.97;5204246;28;20244;-59
2021/03/30 06:31:03;;;;;;;8.33;6.80;;;6.70;99.90;;;8.73;60.53;99425.38;5204660;28;20347;-59
2021/03/30 06:33:44;;;;;;;8.00;7.20;;;7.00;99.90;;;8.81;59.95;99429.47;5200569;28;21971;-59
2021/03/30 06:36:21;;;;;;;7.30;6.40;;;7.10;99.90;;;9.41;60.09;99427.06;5198046;28;20217;-59
2021/03/30 06:38:58;;;;;;;7.97;7.10;;;7.50;99.90;;;9.85;58.01;99423.25;5203622;28;20252;-59
2021/03/30 06:41:39;;;;;;;9.70;6.83;;;7.90;99.90;;;10.24;56.79;99421.34;5200963;28;20237;-60
2021/03/30 06:44:26;;;;;;;8.33;7.03;;;8.30;99.90;;;10.57;54.66;99430.97;5206600;28;20225;-59
2021/03/30 06:47:05;;;;;;;7.90;7.13;;;8.80;99.90;;;11.17;54.92;99423.91;5207972;28;20198;-62
2021/03/30 06:49:39;;;;;;;8.40;7.60;;;8.90;99.90;;;11.54;53.01;99416.59;5203711;28;20602;-59
2021/03/30 06:52:17;;;;;;;8.10;7.40;;;9.30;99.90;;;12.04;51.99;99422.19;5207702;28;20232;-58
2021/03/30 06:54:53;;;;;;;8.17;7.17;;;9.50;99.90;;;12.55;49.94;99416.66;5206835;28;20201;-57
2021/03/30 06:57:37;;;;;;;7.77;7.07;;;10.00;99.90;;;12.83;49.39;99421.25;5207646;28;20576;-58
2021/03/30 07:00:13;;;;;;;8.63;7.30;;;10.40;99.50;;;13.04;48.17;99416.78;5206505;28;20304;-59
2021/03/30 07:02:47;;;;;;;9.07;7.28;;;10.30;99.50;;;13.58;47.99;99415.53;5207729;28;20202;-59
2021/03/30 07:05:34;;;;;;;8.00;7.30;;;10.60;99.60;;;13.80;46.84;99405.97;5206583;28;20285;-59
2021/03/30 07:08:10;;;;;;;8.00;7.20;;;11.00;98.40;;;14.27;46.09;99408.31;5207815;28;20205;-60
2021/03/30 07:10:46;;;;;;;7.28;6.57;;;11.30;98.20;;;14.45;45.73;99402.59;5207330;28;20217;-59
2021/03/30 07:13:21;;;;;;;9.10;7.78;;;11.60;97.50;;;14.63;44.94;99402.19;5207343;28;20560;-59
2021/03/30 07:16:00;;;;;;;8.00;7.22;;;11.60;97.40;;;15.16;43.22;99398.72;5207655;28;20221;-59
2021/03/30 07:18:39;;;;;;;8.90;8.00;;;11.90;96.90;;;15.17;43.47;99400.53;5207564;28;20190;-60
2021/03/30 07:21:15;;;;;;;7.82;7.13;;;12.30;95.90;;;14.91;44.56;99403.09;5207538;28;20585;-59
2021/03/30 07:23:54;;;;;;;7.88;7.07;;;12.40;96.00;;;14.76;44.85;99408.13;5207193;28;20278;-58
2021/03/30 07:26:30;;;;;;;7.05;6.45;;;12.50;95.50;;;14.66;44.83;99405.78;5206041;28;20774;-59
2021/03/30 07:29:05;;;;;;;7.88;7.00;;;12.70;95.10;;;14.73;44.63;99398.53;5205397;28;20619;-59
2021/03/30 07:31:45;;;;;;;7.40;6.70;;;12.80;94.40;;;14.91;44.27;99403.09;5203396;28;20217;-59
2021/03/30 07:34:25;;;;;;;7.63;6.88;;;13.20;93.90;;;14.89;44.89;99402.13;5206351;28;20661;-59
2021/03/30 07:37:02;;;;;;;8.18;7.38;;;13.30;94.20;;;14.69;44.55;99401.72;5205282;28;20218;-58
2021/03/30 07:39:44;;;;;;;7.97;7.18;;;13.10;93.50;;;14.94;44.66;99400.75;5200724;28;20205;-57
2021/03/30 07:42:17;;;;;;;8.48;7.53;;;13.20;94.10;;;14.82;44.29;99399.16;5196684;28;20202;-59
2021/03/30 07:44:50;;;;;;;7.75;6.75;;;13.40;93.30;;;14.90;44.88;99401.31;5206353;28;20658;-59
2021/03/30 07:47:23;;;;;;;7.63;6.85;;;13.60;93.50;;;14.90;43.96;99401.31;5206440;28;20609;-59
2021/03/30 07:49:55;;;;;;;6.97;6.38;;;13.60;92.50;;;14.85;43.68;99394.19;5207089;28;20645;-59
2021/03/30 07:52:30;;;;;;;7.63;6.82;;;13.40;92.70;;;14.85;44.11;99403.59;5206600;28;20272;-60
2021/03/30 07:55:29;;;;;;;8.05;6.82;;;13.50;93.00;;;15.13;44.03;99389.91;5206312;28;20228;-59
2021/03/30 07:58:09;;;;;;;7.15;6.53;;;13.80;92.70;;;15.21;43.95;99392.19;5206066;28;20207;-59
2021/03/30 08:00:50;;;;;;;7.03;6.25;;;14.10;92.50;;;15.19;44.16;99391.19;5203387;28;20224;-59
2021/03/30 08:03:31;;;;;;;7.00;6.30;;;14.30;92.20;;;15.63;44.41;99382.81;5205169;28;20695;-60
2021/03/30 08:06:19;;;;;;;6.70;5.78;;;14.70;92.30;;;15.72;43.39;99385.97;5206560;28;20721;-59
2021/03/30 08:09:14;;;;;;;6.93;6.28;;;14.70;91.60;;;15.93;43.29;99381.22;5206735;28;20205;-60
2021/03/30 08:11:52;;;;;;;7.10;5.90;;;14.90;91.40;;;16.05;42.34;99391.38;5205351;28;20205;-58
2021/03/30 08:14:42;;;;;;;6.80;6.30;;;15.10;90.90;;;16.17;42.67;99389.56;5206743;28;20205;-60
2021/03/30 08:17:20;;;;;;;6.57;5.97;;;15.20;91.10;;;16.19;42.73;99389.63;5205524;28;20313;-60
2021/03/30 08:20:03;;;;;;;7.55;6.00;;;15.10;91.30;;;16.32;42.73;99375.78;5206059;28;20210;-59
2021/03/30 08:23:10;;;;;;;6.93;6.07;;;15.30;91.20;;;16.52;43.29;99380.41;5205943;28;20201;-59
2021/03/30 08:25:42;;;;;;;6.65;6.05;;;15.60;91.40;;;16.75;41.94;99383.44;5206299;28;20616;-61
2021/03/30 08:28:55;;;;;;;7.20;5.88;;;15.90;90.40;;;17.17;41.21;99378.91;5200536;28;20203;-62
2021/03/30 08:31:32;;;;;;;6.57;5.75;;;16.30;90.70;;;17.35;40.60;99385.13;5203620;28;20591;-61
2021/03/30 08:34:07;;;;;;;6.50;5.90;;;16.70;88.40;;;17.40;39.82;99378.53;5204453;28;20598;-63
2021/03/30 08:36:49;;;;;;;6.10;5.43;;;16.70;87.30;;;17.34;41.12;99380.78;5203100;28;20688;-63
2021/03/30 08:39:36;;;;;;;6.28;5.63;;;16.50;88.90;;;17.59;39.79;99375.22;5203670;28;20388;-62
2021/03/30 08:42:12;;;;;;;5.93;5.32;;;16.80;86.60;;;17.77;38.80;99380.50;5201882;28;20197;-61
2021/03/30 08:44:50;;;;;;;8.18;5.38;;;17.00;85.30;;;17.88;38.85;99381.97;5203968;28;20225;-62
2021/03/30 08:47:40;;;;;;;6.40;5.80;;;17.20;85.40;;;18.00;39.12;99374.88;5204805;28;20761;-63
2021/03/30 08:50:16;;;;;;;6.95;5.63;;;17.20;85.80;;;18.24;38.87;99382.13;5203211;28;20645;-62
2021/03/30 08:52:50;;;;;;;6.32;5.13;;;17.50;85.80;;;18.42;38.74;99380.44;5203843;28;20252;-62
2021/03/30 08:55:31;;;;;;;6.60;5.78;;;17.70;85.60;;;18.62;38.75;99381.44;5203166;28;20202;-62
2021/03/30 08:58:04;;;;;;;7.43;5.47;;;17.90;84.90;;;18.87;37.86;99375.81;5203591;28;20285;-63
2021/03/30 09:00:36;;;;;;;5.90;5.40;;;18.10;83.90;;;18.93;37.41;99374.34;5202848;28;20300;-62
2021/03/30 09:03:09;;;;;;;5.50;4.95;;;18.20;83.00;;;19.22;36.49;99380.91;5204055;28;20661;-62
2021/03/30 09:05:42;;;;;;;6.53;5.15;;;18.60;81.20;;;19.38;35.54;99374.75;5203295;28;20237;-63
2021/03/30 09:08:14;;;;;;;5.40;4.90;;;18.80;79.60;;;19.59;35.11;99380.91;5203123;28;20296;-61
2021/03/30 09:10:46;;;;;;;6.38;5.10;;;19.00;78.80;;;19.71;35.45;99371.13;5202065;28;20222;-63
2021/03/30 09:13:18;;;;;;;5.68;5.10;;;19.10;78.80;;;19.80;35.16;99371.56;5192977;28;20225;-62
2021/03/30 09:16:07;;;;;;;6.30;4.47;;;19.20;78.50;;;19.89;35.43;99367.59;5204119;28;20244;-63
2021/03/30 09:18:40;;;;;;;6.85;4.68;;;19.30;79.00;;;20.04;35.39;99360.47;5197352;28;20312;-62
2021/03/30 09:21:14;;;;;;;5.57;4.65;;;19.40;79.00;;;20.20;35.46;99362.94;5203885;28;20629;-63
2021/03/30 09:23:47;;;;;;;6.60;4.90;;;19.50;79.10;;;20.38;34.64;99359.34;5203330;28;20260;-63
2021/03/30 09:26:27;;;;;;;7.00;4.53;;;19.70;78.10;;;20.43;35.27;99350.00;5195261;28;20224;-62
2021/03/30 09:28:59;;;;;;;5.60;4.50;;;19.80;79.10;;;20.44;35.02;99351.81;5203102;28;20198;-61
2021/03/30 09:31:32;;;;;;;5.75;4.78;;;19.80;78.50;;;20.65;35.81;99344.03;5203326;28;20218;-60
2021/03/30 09:34:07;;;;;;;5.80;4.95;;;19.90;79.60;;;20.87;34.14;99343.22;5203993;28;20204;-61
2021/03/30 09:36:44;;;;;;;5.63;4.35;;;20.20;76.90;;;20.99;34.34;99335.88;5202494;28;20245;-61
2021/03/30 09:39:22;;;;;;;6.80;4.90;;;20.40;76.70;;;20.98;34.46;99331.53;5201235;28;20291;-61
2021/03/30 09:41:56;;;;;;;6.47;4.88;;;20.40;77.20;;;21.21;33.92;99334.13;5199613;28;20328;-61
2021/03/30 09:44:35;;;;;;;6.22;4.50;;;20.60;76.00;;;21.37;33.12;99331.31;5203260;28;20197;-62
2021/03/30 09:47:15;;;;;;;6.95;5.53;;;20.70;75.10;;;21.50;31.95;99328.34;5202827;28;20213;-62
2021/03/30 09:49:53;;;;;;;6.85;5.95;;;20.90;72.80;;;21.42;31.59;99328.91;5202952;28;20316;-62
2021/03/30 09:52:25;;;;;;;6.93;6.22;;;20.80;72.10;;;21.53;31.69;99328.47;5204285;28;20225;-63
2021/03/30 09:54:58;;;;;;;7.50;6.80;;;20.90;72.30;;;21.74;30.21;99330.94;5205293;28;20213;-60
2021/03/30 09:57:32;;;;;;;9.90;6.50;;;21.20;69.20;;;21.86;29.23;99330.50;5203950;28;20309;-63
2021/03/30 10:00:06;;;;;;;9.00;6.30;;;21.30;67.30;;;21.95;28.48;99316.97;5204473;28;20220;-61
2021/03/30 10:02:38;;;;;;;6.57;5.80;;;21.40;65.90;;;21.74;28.94;99317.06;5203969;28;20197;-61
2021/03/30 10:05:12;;;;;;;7.38;5.95;;;21.10;66.80;;;21.87;29.71;99319.28;5204092;28;20193;-62
2021/03/30 10:07:44;;;;;;;7.35;6.20;;;21.30;68.20;;;21.96;29.52;99311.78;5204799;28;20198;-62
2021/03/30 10:10:17;;;;;;;8.23;6.82;;;21.40;67.40;;;22.01;29.35;99310.25;5203982;28;20304;-61
2021/03/30 10:12:54;;;;;;;10.32;8.13;;;21.40;67.20;;;22.15;28.71;99312.41;5203682;28;20281;-62
2021/03/30 10:15:41;;;;;;;7.78;6.30;;;21.50;66.50;;;22.25;28.50;99296.31;5204428;28;20226;-59
2021/03/30 10:18:13;;;;;;;8.60;6.38;;;21.60;65.60;;;22.31;28.57;99293.91;5207271;28;20212;-62
2021/03/30 10:20:48;;;;;;;7.03;6.13;;;21.70;66.70;;;22.45;28.32;99292.66;5208707;28;20654;-62
2021/03/30 10:23:22;;;;;;;7.68;6.40;;;21.80;64.90;;;22.41;27.43;99284.69;5208570;28;20320;-62
2021/03/30 10:25:55;;;;;;;8.43;6.65;;;21.80;63.40;;;22.59;28.04;99298.31;5207584;28;20185;-62
2021/03/30 10:28:30;;;;;;;8.38;6.75;;;21.90;64.60;;;22.72;26.77;99283.97;5207668;28;20198;-62
2021/03/30 10:31:04;;;;;;;7.45;6.63;;;22.10;61.40;;;22.56;25.86;99286.91;5208276;28;20304;-62
2021/03/30 10:33:41;;;;;;;8.20;6.72;;;21.90;59.90;;;22.61;26.29;99290.56;5208508;28;20292;-61
2021/03/30 10:36:15;;;;;;;7.60;6.78;;;21.90;61.10;;;22.55;27.32;99290.34;5207827;28;20223;-62
2021/03/30 10:39:03;;;;;;;6.75;6.03;;;21.90;62.60;;;22.56;28.03;99284.31;5207005;28;20209;-61
2021/03/30 10:41:38;;;;;;;7.75;6.93;;;21.90;63.60;;;22.51;28.30;99273.72;5205229;28;20234;-62
2021/03/30 10:44:15;;;;;;;7.10;6.13;;;21.90;64.60;;;22.74;27.66;99271.84;5207268;28;20255;-61
2021/03/30 10:46:49;;;;;;;7.43;6.05;;;22.10;63.10;;;22.92;26.37;99272.44;5208492;28;20198;-63
2021/03/30 10:49:21;;;;;;;7.22;6.10;;;22.20;61.30;;;22.91;26.21;99262.81;5204353;28;20208;-62
2021/03/30 10:51:54;;;;;;;7.15;6.40;;;22.10;60.60;;;22.77;28.01;99265.84;5230498;23;20305;-81
2021/03/30 10:54:26;;;;;;;7.65;5.97;;;22.20;63.80;;;22.81;25.45;99275.56;5241693;28;20201;-81
2021/03/30 10:56:59;;;;;;;6.68;5.68;;;22.20;59.10;;;22.91;26.04;99262.81;5236291;28;20220;-81
2021/03/30 10:59:31;;;;;;;7.90;6.85;;;22.20;60.00;;;22.90;27.08;99253.25;5262614;28;20232;-81
2021/03/30 11:02:03;;;;;;;6.07;5.47;;;22.20;61.50;;;22.91;26.54;99261.94;5268184;28;20639;-77
2021/03/30 11:04:35;;;;;;;7.85;5.55;;;22.20;60.40;;;23.13;26.63;99260.91;5269211;28;20627;-81